»·PEaware :: ASA281 KSFO-KSEA

ASA281 :: KSFO-KSEA

FLIGHT INFORMATION

Flight Status: Arrived
Operator:
Alaska Airlines
More flights by this operator :: More flights under this callsign
Pilot: Ben L. (6391)
Aircraft: AIRBUS A321
(A321)
More flights by this aircraft type
Origin: KSFO San Francisco Intl
United States
Destination: KSEA Seattle-Tacoma Intl
United States
More flights between these airports :: More routes between these airports
Route: TRUKN2 DEDHD RBL LMT HAWKZ7
File this flight plan on PilotEdge
Remarks:
Altitude:
(Current/Filed)
34,000ft
Speed:
(Current/Filed)
455kts
Departed: 11-Aug-20 12:26 PM
Arrived: 11-Aug-20 02:01 PM
Distance/Time
Traveled:
590nm/1:34
Distance/Time
To Go:
Arrived

Flight Plot

Page will automatically refresh every two minutes.

Flight plan parsing failed; only flown route is shown


Map Options




Map Legend


Flown Route
Filed Route
Departure Airport
Arrival Airport
Navaid (VOR, NDB)
Fix

Horizontal Profiles

Position Reports

Time Latitude Longitude Heading Altitude Ground
Speed
11-Aug-20 12:00 37.617725 -122.388852 159 31ft 0kts
11-Aug-20 12:01 37.617725 -122.388852 159 31ft 0kts
11-Aug-20 12:02 37.617725 -122.388852 159 31ft 0kts
11-Aug-20 12:03 37.617725 -122.388852 159 31ft 0kts
11-Aug-20 12:04 37.617725 -122.388852 159 31ft 0kts
11-Aug-20 12:05 37.617725 -122.388852 159 31ft 0kts
11-Aug-20 12:06 37.617725 -122.388852 159 31ft 0kts
11-Aug-20 12:07 37.617725 -122.388852 159 31ft 0kts
11-Aug-20 12:08 37.617725 -122.388852 159 31ft 0kts
11-Aug-20 12:09 37.617725 -122.388852 159 31ft 0kts
11-Aug-20 12:10 37.617725 -122.388852 159 31ft 0kts
11-Aug-20 12:11 37.617725 -122.388852 159 31ft 0kts
11-Aug-20 12:12 37.617725 -122.388852 159 31ft 0kts
11-Aug-20 12:13 37.617786 -122.388882 162 31ft 2kts
11-Aug-20 12:14 37.618356 -122.388762 212 31ft 2kts
11-Aug-20 12:15 37.618778 -122.388462 209 31ft 0kts
11-Aug-20 12:16 37.618778 -122.388463 209 31ft 0kts
11-Aug-20 12:17 37.619599 -122.390815 311 30ft 17kts
11-Aug-20 12:18 37.620380 -122.391844 331 29ft 9kts
11-Aug-20 12:19 37.622188 -122.388071 113 28ft 21kts
11-Aug-20 12:20 37.619131 -122.380909 117 28ft 19kts
11-Aug-20 12:21 37.614503 -122.381069 208 29ft 18kts
11-Aug-20 12:22 37.609926 -122.384193 216 30ft 18kts
11-Aug-20 12:23 37.608564 -122.383960 124 30ft 0kts
11-Aug-20 12:24 37.608858 -122.382313 29 29ft 22kts
11-Aug-20 12:25 37.641765 -122.359002 44 1243ft 182kts
11-Aug-20 12:26 37.670883 -122.303892 53 3444ft 201kts
11-Aug-20 12:27 37.706208 -122.236691 55 4905ft 264kts
11-Aug-20 12:28 37.774762 -122.204985 5 7409ft 282kts
11-Aug-20 12:29 37.854144 -122.192572 6 10005ft 296kts
11-Aug-20 12:30 37.942420 -122.178164 6 11353ft 350kts
11-Aug-20 12:31 38.045375 -122.161216 6 13224ft 384kts
11-Aug-20 12:32 38.152328 -122.143588 6 15496ft 398kts
11-Aug-20 12:33 38.264023 -122.125113 6 17582ft 411kts
11-Aug-20 12:34 38.379403 -122.116058 356 19425ft 423kts
11-Aug-20 12:35 38.498598 -122.124501 355 21164ft 434kts
11-Aug-20 12:36 38.620551 -122.133022 355 22779ft 445kts
11-Aug-20 12:37 38.745438 -122.141653 355 24252ft 455kts
11-Aug-20 12:38 38.872854 -122.150495 355 25598ft 463kts
11-Aug-20 12:39 39.001867 -122.159471 355 27025ft 466kts
11-Aug-20 12:40 39.128661 -122.168299 355 28647ft 460kts
11-Aug-20 12:41 39.256133 -122.177186 355 29974ft 457kts
11-Aug-20 12:42 39.382544 -122.186093 355 31147ft 455kts
11-Aug-20 12:43 39.508429 -122.194988 355 32212ft 452kts
11-Aug-20 12:44 39.633682 -122.203866 354 33180ft 450kts
11-Aug-20 12:45 39.758149 -122.212707 354 33957ft 449kts
11-Aug-20 12:46 39.882331 -122.221537 354 33971ft 448kts
11-Aug-20 12:47 40.006922 -122.230387 354 33967ft 449kts
11-Aug-20 12:48 40.126929 -122.228961 4 33964ft 451kts
11-Aug-20 12:49 40.250746 -122.200759 8 33963ft 452kts
11-Aug-20 12:50 40.373633 -122.170859 8 33960ft 452kts
11-Aug-20 12:51 40.496682 -122.141022 8 33949ft 453kts
11-Aug-20 12:52 40.622286 -122.110477 8 33938ft 462kts
11-Aug-20 12:53 40.748919 -122.079543 8 33936ft 462kts
11-Aug-20 12:54 40.874904 -122.048654 8 33936ft 463kts
11-Aug-20 12:55 41.001339 -122.017508 8 33936ft 463kts
11-Aug-20 12:56 41.121969 -121.987630 7 33935ft 465kts
11-Aug-20 12:57 41.249026 -121.956249 7 33966ft 465kts
11-Aug-20 12:58 41.375821 -121.924685 7 34022ft 465kts
11-Aug-20 12:59 41.502911 -121.892914 7 34035ft 465kts
11-Aug-20 13:00 41.629829 -121.861052 7 34038ft 465kts
11-Aug-20 13:01 41.756611 -121.829092 7 34064ft 465kts
11-Aug-20 13:02 41.883253 -121.797000 7 34086ft 465kts
11-Aug-20 13:03 42.010100 -121.764672 7 34091ft 465kts
11-Aug-20 13:04 42.131005 -121.740708 359 34090ft 461kts
11-Aug-20 13:05 42.257787 -121.751683 347 34091ft 456kts
11-Aug-20 13:06 42.382924 -121.780498 346 34091ft 456kts
11-Aug-20 13:07 42.507650 -121.809110 347 34091ft 456kts
11-Aug-20 13:08 42.632708 -121.837797 347 34091ft 456kts
11-Aug-20 13:09 42.757334 -121.866461 347 34091ft 456kts
11-Aug-20 13:10 42.882333 -121.895332 347 34091ft 456kts
11-Aug-20 13:11 43.007541 -121.924275 345 34091ft 458kts
11-Aug-20 13:12 43.127265 -121.952182 345 34087ft 460kts
11-Aug-20 13:13 43.253107 -121.981455 345 34076ft 460kts
11-Aug-20 13:14 43.379588 -122.011169 345 34054ft 459kts
11-Aug-20 13:15 43.504939 -122.040944 345 34044ft 460kts
11-Aug-20 13:16 43.630824 -122.070823 345 34045ft 460kts
11-Aug-20 13:17 43.756563 -122.100756 345 34045ft 460kts
11-Aug-20 13:18 43.882721 -122.130914 345 34045ft 460kts
11-Aug-20 13:19 44.008608 -122.161144 345 34046ft 460kts
11-Aug-20 13:20 44.121577 -122.188377 345 34045ft 460kts
11-Aug-20 13:21 44.247699 -122.218722 345 34047ft 460kts
11-Aug-20 13:22 44.373817 -122.249355 345 34048ft 459kts
11-Aug-20 13:23 44.499932 -122.280126 345 34052ft 459kts
11-Aug-20 13:24 44.624518 -122.310697 345 34056ft 459kts
11-Aug-20 13:25 44.749890 -122.341602 345 34059ft 459kts
11-Aug-20 13:26 44.875024 -122.372562 345 34062ft 459kts
11-Aug-20 13:27 45.000786 -122.403756 345 34063ft 459kts
11-Aug-20 13:29 45.123493 -122.434215 343 34062ft 461kts
11-Aug-20 13:30 45.246820 -122.465058 343 34063ft 461kts
11-Aug-20 13:31 45.372710 -122.496830 343 34064ft 461kts
11-Aug-20 13:32 45.498966 -122.528770 343 34067ft 461kts
11-Aug-20 13:33 45.624967 -122.560768 343 34067ft 461kts
11-Aug-20 13:34 45.750171 -122.592685 343 33477ft 458kts
11-Aug-20 13:35 45.874574 -122.623537 344 31075ft 453kts
11-Aug-20 13:36 45.995745 -122.653524 343 28465ft 453kts
11-Aug-20 13:37 46.117156 -122.683133 346 25578ft 458kts
11-Aug-20 13:38 46.242790 -122.707581 347 22393ft 456kts
11-Aug-20 13:39 46.363535 -122.724929 353 20435ft 440kts
11-Aug-20 13:40 46.484864 -122.729074 354 17937ft 430kts
11-Aug-20 13:41 46.602459 -122.733168 354 15737ft 415kts
11-Aug-20 13:42 46.713207 -122.737045 354 15039ft 400kts
11-Aug-20 13:43 46.816187 -122.704861 36 14165ft 386kts
11-Aug-20 13:44 46.897079 -122.608568 34 12608ft 363kts
11-Aug-20 13:45 46.979242 -122.543550 12 11999ft 309kts
11-Aug-20 13:46 47.061160 -122.508664 12 12004ft 307kts
11-Aug-20 13:46 47.127682 -122.491906 3 11608ft 307kts
11-Aug-20 13:47 47.210899 -122.477382 2 10232ft 296kts
11-Aug-20 13:49 47.304632 -122.463222 3 8705ft 286kts
11-Aug-20 13:49 47.367868 -122.455696 356 8116ft 263kts
11-Aug-20 13:50 47.440490 -122.455868 357 6892ft 261kts
11-Aug-20 13:52 47.522958 -122.456391 357 5581ft 249kts
11-Aug-20 13:52 47.579792 -122.457222 357 4668ft 242kts
11-Aug-20 13:53 47.645697 -122.457143 13 4004ft 231kts
11-Aug-20 13:54 47.659581 -122.382083 133 4028ft 224kts
11-Aug-20 13:55 47.617487 -122.316529 147 3990ft 212kts
11-Aug-20 13:56 47.566332 -122.306597 182 3374ft 183kts
11-Aug-20 13:57 47.519249 -122.307039 181 2181ft 158kts
11-Aug-20 13:58 47.476887 -122.307586 182 624ft 142kts
11-Aug-20 13:59 47.447570 -122.307927 182 357ft 43kts
11-Aug-20 14:00 47.445946 -122.306273 44 357ft 2kts
11-Aug-20 14:01 47.447422 -122.303536 122 357ft 15kts

Navigation Log

Ident Type
Flight plan parsing failed, navigation log unavailable